createdAt,value
2022-09-27T00:01:26.478Z,1.73
2022-09-27T00:03:55.296Z,1.85
2022-09-27T00:06:30.183Z,1.55
2022-09-27T00:09:02.174Z,2.33
2022-09-27T00:11:37.570Z,1.88
2022-09-27T00:14:05.749Z,1.73
2022-09-27T00:16:35.753Z,2.38
2022-09-27T00:19:20.100Z,2.53
2022-09-27T00:21:47.253Z,2.30
2022-09-27T00:24:15.615Z,2.45
2022-09-27T00:26:42.685Z,2.78
2022-09-27T00:29:10.796Z,2.50
2022-09-27T00:31:38.156Z,1.70
2022-09-27T00:34:06.583Z,1.88
2022-09-27T00:36:34.159Z,1.73
2022-09-27T00:39:03.003Z,2.15
2022-09-27T00:41:34.079Z,2.28
2022-09-27T00:44:04.652Z,2.65
2022-09-27T00:46:50.818Z,2.03
2022-09-27T00:49:52.737Z,2.10
2022-09-27T00:52:26.695Z,2.13
2022-09-27T00:54:59.197Z,2.05
2022-09-27T00:57:26.073Z,2.35
2022-09-27T01:00:07.496Z,2.47
2022-09-27T01:02:36.536Z,3.30
2022-09-27T01:05:06.486Z,2.63
2022-09-27T01:07:36.150Z,2.83
2022-09-27T01:10:07.465Z,2.72
2022-09-27T01:12:55.844Z,2.45
2022-09-27T01:15:57.917Z,2.40
2022-09-27T01:18:59.672Z,2.20
2022-09-27T01:21:59.977Z,2.78
2022-09-27T01:24:38.809Z,1.83
2022-09-27T01:27:14.167Z,2.13
2022-09-27T01:30:10.735Z,2.72
2022-09-27T01:32:49.637Z,2.03
2022-09-27T01:35:45.685Z,2.05
2022-09-27T01:38:21.260Z,2.05
2022-09-27T01:40:57.768Z,3.05
2022-09-27T01:43:32.435Z,2.55
2022-09-27T01:46:14.146Z,2.60
2022-09-27T01:48:46.431Z,2.15
2022-09-27T01:51:39.382Z,2.60
2022-09-27T01:54:08.849Z,2.63
2022-09-27T01:57:06.495Z,2.05
2022-09-27T01:59:41.920Z,2.10
2022-09-27T02:02:12.166Z,2.28
2022-09-27T02:04:42.702Z,2.28
2022-09-27T02:07:17.083Z,2.78
2022-09-27T02:10:18.270Z,2.88
2022-09-27T02:12:57.556Z,2.17
2022-09-27T02:15:26.855Z,2.28
2022-09-27T02:18:15.549Z,2.90
2022-09-27T02:20:50.085Z,2.40
2022-09-27T02:23:23.066Z,2.50
2022-09-27T02:26:03.679Z,2.63
2022-09-27T02:28:42.739Z,2.20
2022-09-27T02:31:10.188Z,2.30
2022-09-27T02:33:51.879Z,1.80
2022-09-27T02:36:19.578Z,2.55
2022-09-27T02:38:46.362Z,2.03
2022-09-27T02:41:19.549Z,1.58
2022-09-27T02:43:50.447Z,2.33
2022-09-27T02:46:29.860Z,2.08
2022-09-27T02:49:10.745Z,2.40
2022-09-27T02:51:56.085Z,2.20
2022-09-27T02:55:06.437Z,2.25
2022-09-27T02:58:10.841Z,2.67
2022-09-27T03:00:45.490Z,2.42
2022-09-27T03:03:18.027Z,2.47
2022-09-27T03:05:51.702Z,2.70
2022-09-27T03:08:19.075Z,1.85
2022-09-27T03:10:45.656Z,2.15
2022-09-27T03:13:12.790Z,2.05
2022-09-27T03:15:42.360Z,2.75
2022-09-27T03:18:08.877Z,1.55
2022-09-27T03:20:35.435Z,1.88
2022-09-27T03:23:02.044Z,2.03
2022-09-27T03:25:28.609Z,1.75
2022-09-27T03:27:55.123Z,2.03
2022-09-27T03:30:21.703Z,1.73
2022-09-27T03:32:48.301Z,2.63
2022-09-27T03:35:14.954Z,3.28
2022-09-27T03:37:41.728Z,2.38
2022-09-27T03:40:09.014Z,1.83
2022-09-27T03:42:35.567Z,1.80
2022-09-27T03:45:02.304Z,1.75
2022-09-27T03:47:28.854Z,2.13
2022-09-27T03:49:55.451Z,2.33
2022-09-27T03:52:22.083Z,2.08
2022-09-27T03:54:48.727Z,1.83
2022-09-27T03:57:15.607Z,2.40
2022-09-27T03:59:45.212Z,1.77
2022-09-27T04:02:14.695Z,2.00
2022-09-27T04:04:43.504Z,2.00
2022-09-27T04:07:10.362Z,1.92
2022-09-27T04:09:41.224Z,1.50
2022-09-27T04:12:12.997Z,1.50
2022-09-27T04:14:39.542Z,2.20
2022-09-27T04:17:06.227Z,2.28
2022-09-27T04:19:32.817Z,1.92
2022-09-27T04:21:59.387Z,1.88
2022-09-27T04:24:25.930Z,2.00
2022-09-27T04:26:52.634Z,2.58
2022-09-27T04:29:19.331Z,2.70
2022-09-27T04:31:45.870Z,1.75
2022-09-27T04:34:15.022Z,1.83
2022-09-27T04:36:41.596Z,1.65
2022-09-27T04:39:09.654Z,1.75
2022-09-27T04:41:36.403Z,1.70
2022-09-27T04:44:03.294Z,1.88
2022-09-27T04:46:31.667Z,1.50
2022-09-27T04:49:01.807Z,2.33
2022-09-27T04:51:28.540Z,2.00
2022-09-27T04:53:57.370Z,3.05
2022-09-27T04:56:23.916Z,1.88
2022-09-27T04:58:50.439Z,3.33
2022-09-27T05:01:17.198Z,1.80
2022-09-27T05:03:45.369Z,2.10
2022-09-27T05:06:11.986Z,2.13
2022-09-27T05:08:38.526Z,2.50
2022-09-27T05:11:05.207Z,2.35
2022-09-27T05:13:31.738Z,1.92
2022-09-27T05:16:04.991Z,2.13
2022-09-27T05:18:31.526Z,2.35
2022-09-27T05:20:59.177Z,1.85
2022-09-27T05:23:27.299Z,1.90
2022-09-27T05:25:56.480Z,1.92
2022-09-27T05:28:24.314Z,2.10
2022-09-27T05:30:50.974Z,2.33
2022-09-27T05:33:17.974Z,2.65
2022-09-27T05:35:52.197Z,2.47
2022-09-27T05:38:19.608Z,2.10
2022-09-27T05:40:47.878Z,1.90
2022-09-27T05:43:15.375Z,2.58
2022-09-27T05:45:43.083Z,2.20
2022-09-27T05:48:10.470Z,2.92
2022-09-27T05:50:39.152Z,2.10
2022-09-27T05:53:05.777Z,2.72
2022-09-27T05:55:32.508Z,2.13
2022-09-27T05:58:04.681Z,2.22
2022-09-27T06:00:31.682Z,2.53
2022-09-27T06:03:00.399Z,2.45
2022-09-27T06:05:29.006Z,2.88
2022-09-27T06:08:10.301Z,2.15
2022-09-27T06:10:38.442Z,2.65
2022-09-27T06:13:12.347Z,2.30
2022-09-27T06:15:41.153Z,2.20
2022-09-27T06:18:12.541Z,2.60
2022-09-27T06:20:40.300Z,3.25
2022-09-27T06:23:11.750Z,2.03
2022-09-27T06:25:39.542Z,2.25
2022-09-27T06:28:37.066Z,2.17
2022-09-27T06:31:06.479Z,1.90
2022-09-27T06:33:33.725Z,1.80
2022-09-27T06:36:08.080Z,2.95
2022-09-27T06:38:34.823Z,2.05
2022-09-27T06:41:09.783Z,2.05
2022-09-27T06:43:38.714Z,2.22
2022-09-27T06:46:07.286Z,2.10
2022-09-27T06:48:37.553Z,2.65
2022-09-27T06:51:04.539Z,3.05
2022-09-27T06:53:31.222Z,2.42
2022-09-27T06:56:01.785Z,2.17
2022-09-27T06:58:47.794Z,2.42
2022-09-27T07:01:32.283Z,2.10
2022-09-27T07:03:58.995Z,2.40
2022-09-27T07:06:25.929Z,2.40
2022-09-27T07:08:53.645Z,1.65
2022-09-27T07:11:24.159Z,2.10
2022-09-27T07:13:53.581Z,2.60
2022-09-27T07:16:22.784Z,1.70
2022-09-27T07:18:53.221Z,2.40
2022-09-27T07:21:22.736Z,2.40
2022-09-27T07:23:52.385Z,1.90
2022-09-27T07:26:18.969Z,1.70
2022-09-27T07:28:46.147Z,1.77
2022-09-27T07:31:12.876Z,2.10
2022-09-27T07:33:43.273Z,2.30
2022-09-27T07:36:11.454Z,2.65
2022-09-27T07:38:38.183Z,2.38
2022-09-27T07:41:10.139Z,2.15
2022-09-27T07:43:36.757Z,2.65
2022-09-27T07:46:03.407Z,1.50
2022-09-27T07:48:30.045Z,2.20
2022-09-27T07:50:56.650Z,2.03
2022-09-27T07:53:24.196Z,1.63
2022-09-27T07:55:53.571Z,1.40
2022-09-27T07:58:24.946Z,1.80
2022-09-27T08:00:54.567Z,2.05
2022-09-27T08:03:26.332Z,1.85
2022-09-27T08:05:52.883Z,2.80
2022-09-27T08:08:21.489Z,2.08
2022-09-27T08:10:48.096Z,1.70
2022-09-27T08:13:18.065Z,2.17
2022-09-27T08:15:44.621Z,1.50
2022-09-27T08:18:11.318Z,1.73
2022-09-27T08:20:37.883Z,1.38
2022-09-27T08:23:04.478Z,1.50
2022-09-27T08:25:31.604Z,1.90
2022-09-27T08:28:02.429Z,1.70
2022-09-27T08:30:31.248Z,2.42
2022-09-27T08:33:03.226Z,1.08
2022-09-27T08:35:31.417Z,1.77
2022-09-27T08:37:59.934Z,1.73
2022-09-27T08:40:35.636Z,1.73
2022-09-27T08:43:39.423Z,2.65
2022-09-27T08:46:14.964Z,1.33
2022-09-27T08:48:44.846Z,1.40
2022-09-27T08:51:14.510Z,1.40
2022-09-27T08:53:47.854Z,1.55
2022-09-27T08:56:15.807Z,1.45
2022-09-27T08:58:49.350Z,1.95
2022-09-27T09:01:17.394Z,1.83
2022-09-27T09:03:48.165Z,1.58
2022-09-27T09:06:26.003Z,1.48
2022-09-27T09:09:07.733Z,1.30
2022-09-27T09:12:23.533Z,1.23
2022-09-27T09:15:05.281Z,1.38
2022-09-27T09:17:43.559Z,1.25
2022-09-27T09:20:33.047Z,1.20
2022-09-27T09:23:14.792Z,1.77
2022-09-27T09:25:44.195Z,1.63
2022-09-27T09:28:25.745Z,1.38
2022-09-27T09:31:23.293Z,1.45
2022-09-27T09:33:56.316Z,2.63
2022-09-27T09:36:32.461Z,1.35
2022-09-27T09:39:05.619Z,1.67
2022-09-27T09:41:40.553Z,1.30
2022-09-27T09:44:23.416Z,1.45
2022-09-27T09:46:56.013Z,1.75
2022-09-27T09:49:28.516Z,1.20
2022-09-27T09:52:05.289Z,1.52
2022-09-27T09:54:46.275Z,1.35
2022-09-27T09:57:26.280Z,1.77
2022-09-27T10:00:01.286Z,1.85
2022-09-27T10:02:43.550Z,1.52
2022-09-27T10:05:15.122Z,1.73
2022-09-27T10:07:42.095Z,2.10
2022-09-27T10:10:13.434Z,1.35
2022-09-27T10:12:40.030Z,1.60
2022-09-27T10:15:07.594Z,2.40
2022-09-27T10:17:44.843Z,1.42
2022-09-27T10:20:37.591Z,1.85
2022-09-27T10:23:11.700Z,1.80
2022-09-27T10:26:02.686Z,1.30
2022-09-27T10:28:41.899Z,1.60
2022-09-27T10:31:14.572Z,1.67
2022-09-27T10:34:02.726Z,1.40
2022-09-27T10:36:32.444Z,1.38
2022-09-27T10:39:04.975Z,1.85
2022-09-27T10:41:36.723Z,1.10
2022-09-27T10:44:20.315Z,1.90
2022-09-27T10:47:10.227Z,1.88
2022-09-27T10:49:43.459Z,1.63
2022-09-27T10:52:18.741Z,1.70
2022-09-27T10:54:56.467Z,1.55
2022-09-27T10:57:28.650Z,1.10
2022-09-27T10:59:59.559Z,1.40
2022-09-27T11:02:35.760Z,1.23
2022-09-27T11:05:15.393Z,1.45
2022-09-27T11:08:20.393Z,1.88
2022-09-27T11:11:16.824Z,1.35
2022-09-27T11:14:25.764Z,1.30
2022-09-27T11:17:04.445Z,1.35
2022-09-27T11:19:56.880Z,1.40
2022-09-27T11:22:41.810Z,1.25
2022-09-27T11:25:17.069Z,1.55
2022-09-27T11:28:01.217Z,1.35
2022-09-27T11:30:55.080Z,1.55
2022-09-27T11:33:37.001Z,1.10
2022-09-27T11:36:40.746Z,1.42
2022-09-27T11:39:19.368Z,0.93
2022-09-27T11:41:55.531Z,1.17
2022-09-27T11:45:19.910Z,2.45
2022-09-27T11:47:48.112Z,1.40
2022-09-27T11:50:53.799Z,0.98
2022-09-27T11:53:55.513Z,1.40
2022-09-27T11:56:44.084Z,1.40
2022-09-27T11:59:26.044Z,1.25
2022-09-27T12:02:14.155Z,1.20
2022-09-27T12:04:56.806Z,1.00
2022-09-27T12:07:32.712Z,1.13
2022-09-27T12:10:09.469Z,1.42
2022-09-27T12:12:41.343Z,1.55
2022-09-27T12:15:19.522Z,1.10
2022-09-27T12:17:50.408Z,0.93
2022-09-27T12:20:25.040Z,1.48
2022-09-27T12:23:01.523Z,1.10
2022-09-27T12:25:32.057Z,1.65
2022-09-27T12:28:15.489Z,1.00
2022-09-27T12:30:52.859Z,0.90
2022-09-27T12:33:47.705Z,0.98
2022-09-27T12:36:19.426Z,0.80
2022-09-27T12:39:12.109Z,2.03
2022-09-27T12:41:43.164Z,1.40
2022-09-27T12:44:13.412Z,1.15
2022-09-27T12:47:03.543Z,1.23
2022-09-27T12:50:09.840Z,1.00
2022-09-27T12:52:45.002Z,1.10
2022-09-27T12:55:28.309Z,0.98
2022-09-27T12:58:32.422Z,1.00
2022-09-27T13:01:15.463Z,0.85
2022-09-27T13:04:19.078Z,1.02
2022-09-27T13:07:11.310Z,0.85
2022-09-27T13:09:59.313Z,0.95
2022-09-27T13:12:30.292Z,0.82
2022-09-27T13:15:15.082Z,0.70
2022-09-27T13:17:42.288Z,0.95
2022-09-27T13:20:27.708Z,1.88
2022-09-27T13:23:06.899Z,1.10
2022-09-27T13:25:55.390Z,1.05
2022-09-27T13:28:45.937Z,1.45
2022-09-27T13:31:16.512Z,1.00
2022-09-27T13:33:49.346Z,1.55
2022-09-27T13:36:28.637Z,0.95
2022-09-27T13:39:14.293Z,0.88
2022-09-27T13:41:48.544Z,0.93
2022-09-27T13:44:15.255Z,1.00
2022-09-27T13:46:56.853Z,0.85
2022-09-27T13:49:41.007Z,0.50
2022-09-27T13:52:33.921Z,0.90
2022-09-27T13:55:03.746Z,0.90
2022-09-27T13:57:51.100Z,0.77
2022-09-27T14:00:22.418Z,0.88
2022-09-27T14:03:33.355Z,1.02
2022-09-27T14:06:08.392Z,0.60
2022-09-27T14:08:49.230Z,0.60
2022-09-27T14:11:24.581Z,1.23
2022-09-27T14:13:52.317Z,0.73
2022-09-27T14:16:20.732Z,0.80
2022-09-27T14:18:54.189Z,1.17
2022-09-27T14:21:37.414Z,0.80
2022-09-27T14:24:22.836Z,1.00
2022-09-27T14:27:02.809Z,0.80
2022-09-27T14:29:32.814Z,1.08
2022-09-27T14:32:09.724Z,0.77
2022-09-27T14:34:36.286Z,1.17
2022-09-27T14:37:22.530Z,0.82
2022-09-27T14:39:56.462Z,1.67
2022-09-27T14:42:26.546Z,0.70
2022-09-27T14:44:55.782Z,0.93
2022-09-27T14:47:25.150Z,0.73
2022-09-27T14:50:05.360Z,1.27
2022-09-27T14:52:35.393Z,0.98
2022-09-27T14:55:08.033Z,1.77
2022-09-27T14:57:36.498Z,1.10
2022-09-27T15:00:19.873Z,0.77
2022-09-27T15:02:47.915Z,0.93
2022-09-27T15:05:17.693Z,1.63
2022-09-27T15:07:46.247Z,1.65
2022-09-27T15:10:19.035Z,0.95
2022-09-27T15:12:48.575Z,0.80
2022-09-27T15:15:28.006Z,1.00
2022-09-27T15:17:54.580Z,1.40
2022-09-27T15:20:35.249Z,1.17
2022-09-27T15:23:05.759Z,1.02
2022-09-27T15:25:43.630Z,1.35
2022-09-27T15:28:19.444Z,0.80
2022-09-27T15:30:55.862Z,0.90
2022-09-27T15:33:28.934Z,1.05
2022-09-27T15:36:02.644Z,0.93
2022-09-27T15:38:40.391Z,1.00
2022-09-27T15:41:15.078Z,1.08
2022-09-27T15:43:52.645Z,0.80
2022-09-27T15:46:22.481Z,0.77
2022-09-27T15:49:16.888Z,1.02
2022-09-27T15:51:49.254Z,1.13
2022-09-27T15:54:23.844Z,1.02
2022-09-27T15:56:55.279Z,1.00
2022-09-27T15:59:28.296Z,0.90
2022-09-27T16:01:57.202Z,1.23
2022-09-27T16:04:24.328Z,1.02
2022-09-27T16:06:50.982Z,0.93
2022-09-27T16:09:19.741Z,0.93
2022-09-27T16:11:50.567Z,1.27
2022-09-27T16:14:19.170Z,1.48
2022-09-27T16:16:48.287Z,0.93
2022-09-27T16:19:15.084Z,1.30
2022-09-27T16:21:42.984Z,1.02
2022-09-27T16:24:12.311Z,1.40
2022-09-27T16:26:39.415Z,1.00
2022-09-27T16:29:11.157Z,1.00
2022-09-27T16:31:40.015Z,1.20
2022-09-27T16:34:09.077Z,1.13
2022-09-27T16:39:20.139Z,1.00
2022-09-27T16:41:46.679Z,1.30
2022-09-27T16:44:17.477Z,0.90
2022-09-27T16:46:46.397Z,1.27
2022-09-27T16:49:36.352Z,1.20
2022-09-27T16:52:05.629Z,1.00
2022-09-27T16:54:34.742Z,1.17
2022-09-27T16:57:05.600Z,1.40
2022-09-27T16:59:35.387Z,1.35
2022-09-27T17:02:05.636Z,0.88
2022-09-27T17:04:35.396Z,1.08
2022-09-27T17:07:03.485Z,1.00
2022-09-27T17:09:30.128Z,1.17
2022-09-27T17:11:56.779Z,1.20
2022-09-27T17:14:24.198Z,1.05
2022-09-27T17:16:51.464Z,1.10
2022-09-27T17:19:18.683Z,1.23
2022-09-27T17:22:15.124Z,1.20
2022-09-27T17:24:41.792Z,1.38
2022-09-27T17:27:08.366Z,1.27
2022-09-27T17:29:35.007Z,1.17
2022-09-27T17:32:02.006Z,1.23
2022-09-27T17:34:28.759Z,1.02
2022-09-27T17:36:55.378Z,0.93
2022-09-27T17:39:22.410Z,1.42
2022-09-27T17:41:50.007Z,1.63
2022-09-27T17:44:21.075Z,1.20
2022-09-27T17:46:47.884Z,1.25
2022-09-27T17:49:36.481Z,1.35
2022-09-27T17:52:05.537Z,1.67
2022-09-27T17:54:32.043Z,1.25
2022-09-27T17:56:58.773Z,2.03
2022-09-27T17:59:26.051Z,1.20
2022-09-27T18:01:53.269Z,1.55
2022-09-27T18:04:20.597Z,1.40
2022-09-27T18:06:47.664Z,1.35
2022-09-27T18:09:16.728Z,1.50
2022-09-27T18:11:45.284Z,1.20
2022-09-27T18:14:12.377Z,1.48
2022-09-27T18:16:43.006Z,1.60
2022-09-27T18:19:17.063Z,2.00
2022-09-27T18:21:44.250Z,1.45
2022-09-27T18:24:11.807Z,1.60
2022-09-27T18:26:40.277Z,1.63
2022-09-27T18:29:15.367Z,1.38
2022-09-27T18:31:47.449Z,1.70
2022-09-27T18:34:16.357Z,1.80
2022-09-27T18:36:44.435Z,1.88
2022-09-27T18:39:13.862Z,1.67
2022-09-27T18:41:40.572Z,1.50
2022-09-27T18:44:12.555Z,1.70
2022-09-27T18:46:39.570Z,2.60
2022-09-27T18:49:12.403Z,1.30
2022-09-27T18:51:47.420Z,1.35
2022-09-27T18:54:19.746Z,2.20
2022-09-27T18:56:48.386Z,1.75
2022-09-27T18:59:15.749Z,2.80
2022-09-27T19:01:45.702Z,2.40
2022-09-27T19:04:20.458Z,1.65
2022-09-27T19:06:49.999Z,2.20
2022-09-27T19:09:16.685Z,2.70
2022-09-27T19:11:43.354Z,2.58
2022-09-27T19:14:17.492Z,2.42
2022-09-27T19:16:47.025Z,2.35
2022-09-27T19:19:19.458Z,1.73
2022-09-27T19:21:46.347Z,2.90
2022-09-27T19:24:14.057Z,1.70
2022-09-27T19:26:41.488Z,1.90
2022-09-27T19:29:12.881Z,2.20
2022-09-27T19:31:39.977Z,1.95
2022-09-27T19:34:09.295Z,1.80
2022-09-27T19:36:38.304Z,2.40
2022-09-27T19:39:04.874Z,1.95
2022-09-27T19:41:31.511Z,2.70
2022-09-27T19:43:58.107Z,2.40
2022-09-27T19:46:25.913Z,1.90
2022-09-27T19:48:53.554Z,3.35
2022-09-27T19:51:22.399Z,2.35
2022-09-27T19:53:50.313Z,2.53
2022-09-27T19:56:16.959Z,2.45
2022-09-27T19:58:44.490Z,2.75
2022-09-27T20:01:12.308Z,1.85
2022-09-27T20:03:41.568Z,1.90
2022-09-27T20:06:13.876Z,2.58
2022-09-27T20:08:41.267Z,2.05
2022-09-27T20:11:13.948Z,2.15
2022-09-27T20:13:41.639Z,2.20
2022-09-27T20:16:13.010Z,1.50
2022-09-27T20:18:43.724Z,2.05
2022-09-27T20:21:11.056Z,1.52
2022-09-27T20:23:38.982Z,2.38
2022-09-27T20:26:08.844Z,1.77
2022-09-27T20:28:40.424Z,2.03
2022-09-27T20:31:11.143Z,1.85
2022-09-27T20:33:50.776Z,1.90
2022-09-27T20:36:22.558Z,1.92
2022-09-27T20:39:03.632Z,1.67
2022-09-27T20:41:33.009Z,1.20
2022-09-27T20:44:03.451Z,1.17
2022-09-27T20:46:30.508Z,1.60
2022-09-27T20:49:00.521Z,1.88
2022-09-27T20:51:27.802Z,1.50
2022-09-27T20:53:54.735Z,1.20
2022-09-27T20:56:24.262Z,1.45
2022-09-27T20:58:53.228Z,2.40
2022-09-27T21:01:20.734Z,1.80
2022-09-27T21:03:47.429Z,1.48
2022-09-27T21:06:14.147Z,1.85
2022-09-27T21:08:41.057Z,1.40
2022-09-27T21:11:12.556Z,1.50
2022-09-27T21:13:44.065Z,2.10
2022-09-27T21:16:16.868Z,1.67
2022-09-27T21:18:44.068Z,1.63
2022-09-27T21:21:14.819Z,1.48
2022-09-27T21:23:44.817Z,1.35
2022-09-27T21:26:13.992Z,1.60
2022-09-27T21:28:46.015Z,1.45
2022-09-27T21:31:22.275Z,1.77
2022-09-27T21:33:55.160Z,1.88
2022-09-27T21:36:23.479Z,1.20
2022-09-27T21:38:51.082Z,1.13
2022-09-27T21:41:18.316Z,1.10
2022-09-27T21:43:47.811Z,1.30
2022-09-27T21:46:23.328Z,1.05
2022-09-27T21:48:52.133Z,0.95
2022-09-27T21:51:24.458Z,1.25
2022-09-27T21:53:55.982Z,1.92
2022-09-27T21:56:25.014Z,1.60
2022-09-27T21:58:53.971Z,1.45
2022-09-27T22:01:22.881Z,1.52
2022-09-27T22:03:51.554Z,1.27
2022-09-27T22:06:23.685Z,1.58
2022-09-27T22:08:51.104Z,1.42
2022-09-27T22:11:23.257Z,1.13
2022-09-27T22:13:50.165Z,1.30
2022-09-27T22:16:18.279Z,1.10
2022-09-27T22:18:46.974Z,1.35
2022-09-27T22:21:20.471Z,1.08
2022-09-27T22:23:47.166Z,1.30
2022-09-27T22:26:22.423Z,1.05
2022-09-27T22:28:48.958Z,1.20
2022-09-27T22:31:18.944Z,1.15
2022-09-27T22:33:49.787Z,1.10
2022-09-27T22:36:16.858Z,1.27
2022-09-27T22:38:46.844Z,1.45
2022-09-27T22:41:15.626Z,1.00
2022-09-27T22:43:42.834Z,0.77
2022-09-27T22:46:10.620Z,0.80
2022-09-27T22:48:37.238Z,0.90
2022-09-27T22:51:04.838Z,1.00
2022-09-27T22:53:32.089Z,0.90
2022-09-27T22:56:05.394Z,0.90
2022-09-27T22:58:32.141Z,0.93
2022-09-27T23:00:59.067Z,1.17
2022-09-27T23:03:26.008Z,1.00
2022-09-27T23:05:52.580Z,1.02
2022-09-27T23:08:19.181Z,0.70
2022-09-27T23:10:48.543Z,1.13
2022-09-27T23:13:17.256Z,1.00
2022-09-27T23:15:43.742Z,1.13
2022-09-27T23:18:10.720Z,1.23
2022-09-27T23:20:38.336Z,0.70
2022-09-27T23:23:04.898Z,1.13
2022-09-27T23:25:31.422Z,0.98
2022-09-27T23:27:59.256Z,0.70
2022-09-27T23:30:29.194Z,0.50
2022-09-27T23:32:55.760Z,0.93
2022-09-27T23:35:33.959Z,0.75
2022-09-27T23:38:01.391Z,0.63
2022-09-27T23:40:28.104Z,0.90
2022-09-27T23:42:54.695Z,0.90
2022-09-27T23:45:21.225Z,0.68
2022-09-27T23:47:48.786Z,0.63
2022-09-27T23:50:15.416Z,0.50
2022-09-27T23:52:41.916Z,0.50
2022-09-27T23:55:09.168Z,0.55
2022-09-27T23:57:35.904Z,0.70
